Hlavní strana
METAR-TAF:

METAR-TAF

Letiště :

Stord, Norsko

zeměpisná šířka: 59-48N, zeměpisná délka: 005-21E, výška: 49 m

Aktuální stav počasí

Zpráva byla vytvořena před 1 hodinou a 13 minutami, v 10:20 UTC
Jihozápadní vítr 14 kt
Teplota 10°C
Vlhkost vzduchu 93%
Tlak 1010 hPa
Viditelnost: 5000 m
Skoro jasno ve výšce 800 ft
Polojasno ve výšce 1200 ft
Oblačno až skoro zataženo ve výšce 1600 ft
slabý déšť

METAR: ENSO 221020Z 22014KT 5000 -RA FEW008 SCT012 BKN016 10/09 Q1010

Čas: 13:33 (11:33 UTC)

Předpověď počasí

Zpráva byla vytvořena před 3 hodinami a 33 minutami, v 08:00 UTC
Předpověď platná od 22 v 09 UTC do 22 v 18 UTC
Jižní vítr 8 kt
Viditelnost: 8000 m
Polojasno ve výšce 700 ft
Oblačno až skoro zataženo ve výšce 1500 ft
slabý déšť
Dočasný
od 22 v 09 UTC do 22 v 18 UTC
Jihojihozápadní vítr 18 kt
Viditelnost: 3000 m
Oblačno až skoro zataženo ve výšce 600 ft
déšť, mrholení, kouřmo

TAF: ENSO 220800Z 2209/2218 19008KT 8000 -RA SCT007 BKN015 TEMPO 2209/2218 20018KT 3000 RADZ BR BKN006

Stav a předpovědi počasí z více než 4 000 letišť (zprávy METAR a TAF).

Červené a žluté tečky na mapě představují dostupné meteorologické stanice.

Když kurzor umístíte na tečku, zobrazí se název stanice.

Pak kliknutím zobrazíte stav a předpověď počasí.

Chcete-li změnit mapu, kliknutím na zelené tlačítko se znaménkem +mapu přiblížíte, kliknutím na zelené tlačítko se znaménkem – mapu oddálíte a kliknutím na zelené šipky přejdete na sousední mapy.


METAR-TAF: